createdAt,value
2019-05-05T00:01:17.882Z,100.00
2019-05-05T00:03:47.933Z,100.00
2019-05-05T00:06:16.358Z,100.00
2019-05-05T00:08:45.651Z,100.00
2019-05-05T00:11:28.259Z,100.00
2019-05-05T00:14:04.704Z,100.00
2019-05-05T00:16:35.145Z,100.00
2019-05-05T00:19:04.752Z,100.00
2019-05-05T00:21:34.324Z,100.00
2019-05-05T00:24:04.638Z,100.00
2019-05-05T00:26:34.862Z,100.00
2019-05-05T00:29:04.378Z,100.00
2019-05-05T00:31:34.882Z,100.00
2019-05-05T00:34:05.003Z,100.00
2019-05-05T00:36:35.199Z,100.00
2019-05-05T00:39:04.868Z,100.00
2019-05-05T00:41:34.619Z,100.00
2019-05-05T00:44:04.727Z,100.00
2019-05-05T00:46:47.019Z,100.00
2019-05-05T00:49:15.459Z,100.00
2019-05-05T00:51:44.401Z,100.00
2019-05-05T00:54:14.904Z,100.00
2019-05-05T00:56:45.063Z,100.00
2019-05-05T00:59:17.626Z,100.00
2019-05-05T01:02:04.660Z,100.00
2019-05-05T01:04:35.272Z,100.00
2019-05-05T01:07:04.981Z,100.00
2019-05-05T01:09:34.601Z,100.00
2019-05-05T01:12:04.362Z,100.00
2019-05-05T01:14:34.281Z,100.00
2019-05-05T01:17:02.773Z,100.00
2019-05-05T01:19:31.206Z,100.00
2019-05-05T01:21:59.616Z,100.00
2019-05-05T01:24:28.192Z,100.00
2019-05-05T01:26:56.667Z,100.00
2019-05-05T01:29:25.318Z,100.00
2019-05-05T01:31:55.623Z,100.00
2019-05-05T01:34:25.704Z,100.00
2019-05-05T01:36:55.756Z,100.00
2019-05-05T01:39:25.827Z,100.00
2019-05-05T01:42:01.852Z,100.00
2019-05-05T01:44:30.281Z,100.00
2019-05-05T01:46:58.688Z,100.00
2019-05-05T01:49:27.134Z,100.00
2019-05-05T01:51:55.548Z,100.00
2019-05-05T01:54:24.967Z,100.00
2019-05-05T01:56:55.449Z,100.00
2019-05-05T01:59:24.846Z,100.00
2019-05-05T02:01:55.121Z,100.00
2019-05-05T02:04:25.013Z,100.00
2019-05-05T02:06:54.941Z,100.00
2019-05-05T02:09:24.997Z,100.00
2019-05-05T02:11:54.686Z,100.00
2019-05-05T02:14:24.668Z,100.00
2019-05-05T02:16:54.578Z,100.00
2019-05-05T02:19:25.009Z,100.00
2019-05-05T02:21:54.761Z,100.00
2019-05-05T02:24:25.075Z,100.00
2019-05-05T02:26:54.537Z,100.00
2019-05-05T02:29:40.330Z,100.00
2019-05-05T02:32:25.928Z,100.00
2019-05-05T02:34:56.581Z,100.00
2019-05-05T02:37:25.675Z,100.00
2019-05-05T02:40:01.952Z,100.00
2019-05-05T02:42:26.458Z,100.00
2019-05-05T02:44:57.281Z,100.00
2019-05-05T02:47:34.879Z,100.00
2019-05-05T02:50:05.655Z,100.00
2019-05-05T02:52:34.784Z,100.00
2019-05-05T02:55:04.264Z,100.00
2019-05-05T02:57:34.542Z,100.00
2019-05-05T03:00:16.605Z,100.00
2019-05-05T03:02:45.111Z,100.00
2019-05-05T03:05:14.594Z,100.00
2019-05-05T03:07:43.829Z,100.00
2019-05-05T03:10:14.095Z,100.00
2019-05-05T03:12:43.901Z,100.00
2019-05-05T03:15:15.523Z,100.00
2019-05-05T03:17:44.564Z,100.00
2019-05-05T03:20:14.539Z,100.00
2019-05-05T03:22:43.539Z,100.00
2019-05-05T03:25:13.596Z,100.00
2019-05-05T03:27:42.163Z,100.00
2019-05-05T03:30:10.645Z,100.00
2019-05-05T03:32:39.176Z,100.00
2019-05-05T03:35:07.631Z,100.00
2019-05-05T03:37:36.645Z,100.00
2019-05-05T03:40:08.232Z,100.00
2019-05-05T03:42:38.377Z,100.00
2019-05-05T03:45:08.760Z,100.00
2019-05-05T03:47:37.331Z,100.00
2019-05-05T03:50:07.207Z,100.00
2019-05-05T03:52:35.723Z,100.00
2019-05-05T03:55:06.832Z,100.00
2019-05-05T03:57:35.537Z,100.00
2019-05-05T04:00:05.674Z,100.00
2019-05-05T04:02:48.256Z,100.00
2019-05-05T04:05:21.061Z,100.00
2019-05-05T04:07:49.840Z,100.00
2019-05-05T04:10:18.319Z,100.00
2019-05-05T04:12:46.773Z,100.00
2019-05-05T04:15:15.251Z,100.00
2019-05-05T04:18:00.575Z,100.00
2019-05-05T04:20:30.257Z,100.00
2019-05-05T04:22:58.714Z,100.00
2019-05-05T04:25:27.197Z,100.00
2019-05-05T04:27:55.603Z,100.00
2019-05-05T04:30:24.050Z,100.00
2019-05-05T04:32:54.414Z,100.00
2019-05-05T04:35:24.481Z,100.00
2019-05-05T04:37:54.305Z,100.00
2019-05-05T04:40:24.039Z,100.00
2019-05-05T04:42:54.699Z,100.00
2019-05-05T04:45:24.108Z,100.00
2019-05-05T04:47:54.434Z,100.00
2019-05-05T04:50:24.506Z,100.00
2019-05-05T04:52:54.549Z,100.00
2019-05-05T04:55:24.436Z,100.00
2019-05-05T04:57:54.069Z,100.00
2019-05-05T05:00:24.201Z,100.00
2019-05-05T05:02:54.408Z,100.00
2019-05-05T05:05:35.871Z,100.00
2019-05-05T05:08:04.274Z,100.00
2019-05-05T05:10:34.595Z,100.00
2019-05-05T05:13:04.637Z,100.00
2019-05-05T05:15:34.052Z,100.00
2019-05-05T05:18:04.245Z,100.00
2019-05-05T05:20:33.956Z,100.00
2019-05-05T05:23:03.639Z,100.00
2019-05-05T05:25:34.474Z,96.15
2019-05-05T05:28:04.187Z,91.65
2019-05-05T05:30:34.495Z,90.53
2019-05-05T05:33:04.389Z,90.58
2019-05-05T05:35:33.677Z,91.62
2019-05-05T05:38:04.442Z,94.04
2019-05-05T05:40:34.273Z,94.89
2019-05-05T05:43:04.847Z,94.50
2019-05-05T05:45:34.978Z,94.55
2019-05-05T05:48:10.895Z,95.78
2019-05-05T05:50:40.953Z,98.33
2019-05-05T05:53:09.355Z,100.00
2019-05-05T05:55:37.784Z,100.00
2019-05-05T05:58:06.187Z,100.00
2019-05-05T06:00:34.622Z,100.00
2019-05-05T06:03:03.919Z,100.00
2019-05-05T06:05:34.280Z,100.00
2019-05-05T06:08:04.726Z,100.00
2019-05-05T06:10:33.882Z,100.00
2019-05-05T06:13:04.141Z,100.00
2019-05-05T06:15:33.786Z,100.00
2019-05-05T06:18:04.400Z,100.00
2019-05-05T06:20:34.364Z,100.00
2019-05-05T06:23:04.122Z,100.00
2019-05-05T06:25:34.281Z,100.00
2019-05-05T06:28:04.220Z,100.00
2019-05-05T06:30:33.656Z,100.00
2019-05-05T06:33:04.712Z,100.00
2019-05-05T06:35:33.862Z,100.00
2019-05-05T06:38:04.464Z,100.00
2019-05-05T06:40:53.726Z,100.00
2019-05-05T06:43:25.457Z,100.00
2019-05-05T06:45:55.615Z,100.00
2019-05-05T06:48:24.129Z,100.00
2019-05-05T06:50:54.435Z,100.00
2019-05-05T06:53:23.915Z,100.00
2019-05-05T06:55:54.285Z,100.00
2019-05-05T06:58:24.185Z,100.00
2019-05-05T07:00:54.265Z,100.00
2019-05-05T07:03:24.351Z,100.00
2019-05-05T07:05:53.908Z,100.00
2019-05-05T07:08:24.371Z,100.00
2019-05-05T07:10:54.730Z,100.00
2019-05-05T07:13:24.436Z,100.00
2019-05-05T07:15:54.227Z,100.00
2019-05-05T07:18:24.661Z,100.00
2019-05-05T07:20:54.499Z,100.00
2019-05-05T07:23:24.651Z,100.00
2019-05-05T07:25:54.929Z,98.21
2019-05-05T07:28:23.539Z,97.19
2019-05-05T07:30:52.086Z,94.55
2019-05-05T07:33:20.576Z,93.40
2019-05-05T07:35:56.769Z,91.06
2019-05-05T07:38:20.791Z,91.51
2019-05-05T07:40:49.188Z,90.57
2019-05-05T07:43:17.636Z,86.96
2019-05-05T07:45:46.044Z,85.18
2019-05-05T07:48:14.477Z,85.15
2019-05-05T07:50:47.970Z,82.55
2019-05-05T07:53:17.646Z,80.29
2019-05-05T07:55:44.441Z,79.98
2019-05-05T07:58:13.916Z,81.29
2019-05-05T08:00:43.705Z,79.29
2019-05-05T08:03:14.234Z,79.18
2019-05-05T08:05:44.180Z,78.04
2019-05-05T08:08:13.897Z,73.54
2019-05-05T08:10:43.703Z,73.42
2019-05-05T08:13:14.126Z,74.33
2019-05-05T08:15:56.670Z,75.26
2019-05-05T08:18:34.456Z,72.90
2019-05-05T08:21:04.392Z,66.49
2019-05-05T08:23:40.687Z,65.78
2019-05-05T08:26:13.822Z,70.89
2019-05-05T08:28:55.874Z,68.29
2019-05-05T08:31:25.958Z,69.69
2019-05-05T08:33:54.752Z,63.54
2019-05-05T08:36:23.544Z,65.63
2019-05-05T08:38:52.015Z,67.82
2019-05-05T08:41:20.443Z,59.75
2019-05-05T08:43:48.850Z,59.26
2019-05-05T08:46:17.283Z,57.92
2019-05-05T08:48:45.689Z,59.38
2019-05-05T08:51:14.288Z,60.44
2019-05-05T08:53:48.029Z,60.59
2019-05-05T08:56:14.595Z,58.68
2019-05-05T08:58:43.795Z,60.03
2019-05-05T09:01:14.737Z,59.56
2019-05-05T09:03:44.328Z,56.90
2019-05-05T09:06:13.775Z,50.49
2019-05-05T09:08:44.211Z,48.25
2019-05-05T09:11:14.057Z,49.69
2019-05-05T09:13:44.695Z,53.56
2019-05-05T09:16:14.473Z,53.48
2019-05-05T09:19:04.163Z,52.67
2019-05-05T09:21:34.508Z,50.18
2019-05-05T09:24:20.243Z,48.27
2019-05-05T09:26:50.794Z,47.39
2019-05-05T09:29:20.845Z,48.55
2019-05-05T09:31:49.337Z,49.10
2019-05-05T09:34:17.750Z,49.49
2019-05-05T09:36:46.174Z,44.34
2019-05-05T09:39:14.574Z,46.34
2019-05-05T09:41:44.625Z,47.08
2019-05-05T09:44:13.656Z,44.92
2019-05-05T09:46:44.125Z,47.38
2019-05-05T09:49:14.081Z,50.77
2019-05-05T09:51:44.032Z,51.74
2019-05-05T09:54:16.700Z,48.04
2019-05-05T09:56:44.421Z,46.85
2019-05-05T09:59:13.610Z,45.80
2019-05-05T10:01:44.341Z,44.07
2019-05-05T10:04:13.876Z,48.71
2019-05-05T10:06:47.118Z,47.43
2019-05-05T10:09:13.822Z,46.31
2019-05-05T10:11:44.834Z,44.75
2019-05-05T10:14:14.347Z,46.51
2019-05-05T10:16:42.674Z,46.10
2019-05-05T10:19:11.109Z,42.79
2019-05-05T10:21:39.520Z,42.03
2019-05-05T10:24:27.904Z,42.88
2019-05-05T10:26:48.806Z,45.17
2019-05-05T10:29:17.309Z,42.37
2019-05-05T10:31:45.785Z,43.72
2019-05-05T10:34:15.857Z,47.96
2019-05-05T10:36:44.331Z,43.72
2019-05-05T10:39:33.474Z,44.79
2019-05-05T10:42:03.929Z,47.87
2019-05-05T10:44:34.098Z,47.75
2019-05-05T10:47:04.385Z,45.89
2019-05-05T10:49:33.664Z,44.24
2019-05-05T10:52:03.759Z,45.67
2019-05-05T10:54:43.314Z,43.90
2019-05-05T10:57:04.020Z,39.48
2019-05-05T10:59:34.374Z,41.27
2019-05-05T11:02:04.974Z,43.09
2019-05-05T11:04:33.533Z,41.07
2019-05-05T11:07:03.966Z,43.05
2019-05-05T11:09:33.734Z,42.09
2019-05-05T11:12:02.294Z,45.08
2019-05-05T11:14:30.722Z,44.18
2019-05-05T11:16:59.203Z,44.78
2019-05-05T11:19:27.694Z,46.30
2019-05-05T11:21:56.095Z,48.10
2019-05-05T11:24:24.590Z,47.67
2019-05-05T11:26:53.949Z,47.05
2019-05-05T11:29:24.086Z,48.92
2019-05-05T11:31:52.679Z,45.30
2019-05-05T11:34:24.675Z,42.13
2019-05-05T11:36:57.241Z,41.32
2019-05-05T11:39:25.676Z,46.25
2019-05-05T11:41:54.811Z,42.71
2019-05-05T11:44:24.241Z,41.86
2019-05-05T11:46:54.676Z,42.75
2019-05-05T11:49:24.459Z,43.77
2019-05-05T11:51:54.213Z,44.19
2019-05-05T11:54:24.626Z,44.07
2019-05-05T11:56:53.924Z,43.57
2019-05-05T11:59:23.730Z,43.29
2019-05-05T12:01:54.645Z,44.23
2019-05-05T12:04:23.936Z,43.34
2019-05-05T12:06:52.594Z,44.68
2019-05-05T12:09:24.774Z,46.19
2019-05-05T12:11:54.575Z,45.78
2019-05-05T12:14:27.116Z,44.03
2019-05-05T12:16:54.719Z,42.74
2019-05-05T12:19:24.304Z,42.19
2019-05-05T12:21:54.869Z,43.08
2019-05-05T12:24:24.945Z,41.26
2019-05-05T12:26:55.163Z,42.56
2019-05-05T12:29:24.556Z,42.27
2019-05-05T12:31:53.078Z,39.51
2019-05-05T12:34:23.483Z,37.38
2019-05-05T12:36:53.798Z,39.64
2019-05-05T12:39:21.842Z,41.94
2019-05-05T12:41:50.281Z,42.03
2019-05-05T12:44:20.388Z,40.88
2019-05-05T12:46:53.241Z,42.63
2019-05-05T12:49:24.795Z,42.03
2019-05-05T12:51:53.959Z,44.38
2019-05-05T12:54:22.063Z,40.13
2019-05-05T12:56:50.496Z,42.79
2019-05-05T12:59:20.541Z,40.52
2019-05-05T13:01:48.972Z,41.21
2019-05-05T13:04:17.374Z,42.38
2019-05-05T13:06:45.805Z,39.52
2019-05-05T13:09:15.854Z,41.59
2019-05-05T13:11:44.280Z,39.83
2019-05-05T13:14:14.237Z,41.70
2019-05-05T13:16:52.772Z,40.11
2019-05-05T13:19:14.701Z,41.01
2019-05-05T13:21:50.473Z,40.76
2019-05-05T13:24:26.157Z,41.88
2019-05-05T13:26:58.717Z,42.23
2019-05-05T13:29:27.117Z,42.10
2019-05-05T13:31:55.544Z,40.83
2019-05-05T13:34:23.958Z,41.43
2019-05-05T13:36:52.458Z,38.92
2019-05-05T13:39:21.035Z,41.18
2019-05-05T13:41:49.468Z,42.26
2019-05-05T13:44:37.710Z,42.84
2019-05-05T13:47:06.146Z,45.97
2019-05-05T13:49:36.191Z,47.90
2019-05-05T13:52:05.196Z,49.08
2019-05-05T13:54:33.671Z,49.38
2019-05-05T13:57:03.889Z,49.45
2019-05-05T13:59:33.927Z,51.72
2019-05-05T14:02:02.404Z,53.85
2019-05-05T14:04:30.809Z,54.55
2019-05-05T14:06:59.243Z,55.63
2019-05-05T14:09:27.650Z,56.59
2019-05-05T14:11:56.081Z,60.03
2019-05-05T14:14:24.551Z,62.08
2019-05-05T14:16:53.805Z,64.35
2019-05-05T14:19:24.716Z,68.14
2019-05-05T14:21:53.855Z,70.48
2019-05-05T14:24:24.066Z,72.28
2019-05-05T14:26:54.232Z,72.64
2019-05-05T14:29:39.177Z,72.63
2019-05-05T14:32:08.874Z,73.12
2019-05-05T14:34:44.028Z,77.85
2019-05-05T14:37:33.872Z,80.84
2019-05-05T14:40:02.203Z,82.52
2019-05-05T14:42:30.703Z,84.98
2019-05-05T14:44:59.105Z,85.94
2019-05-05T14:47:27.533Z,86.60
2019-05-05T14:49:55.933Z,89.62
2019-05-05T14:52:24.906Z,86.85
2019-05-05T14:54:54.395Z,82.71
2019-05-05T14:57:24.655Z,78.21
2019-05-05T14:59:54.010Z,75.80
2019-05-05T15:02:24.299Z,76.65
2019-05-05T15:04:53.961Z,66.42
2019-05-05T15:07:26.735Z,67.57
2019-05-05T15:09:56.809Z,69.90
2019-05-05T15:12:26.853Z,69.65
2019-05-05T15:14:55.291Z,67.59
2019-05-05T15:17:24.618Z,67.50
2019-05-05T15:19:54.079Z,67.89
2019-05-05T15:22:23.922Z,65.46
2019-05-05T15:24:53.613Z,64.55
2019-05-05T15:27:24.158Z,64.29
2019-05-05T15:29:54.260Z,64.57
2019-05-05T15:32:23.989Z,63.54
2019-05-05T15:34:54.610Z,63.63
2019-05-05T15:37:23.762Z,62.13
2019-05-05T15:39:53.585Z,66.16
2019-05-05T15:42:22.240Z,68.30
2019-05-05T15:44:50.666Z,67.94
2019-05-05T15:47:19.067Z,67.16
2019-05-05T15:49:47.505Z,67.15
2019-05-05T15:52:15.906Z,68.44
2019-05-05T15:54:44.757Z,66.90
2019-05-05T15:57:14.870Z,66.16
2019-05-05T15:59:43.736Z,61.82
2019-05-05T16:02:13.388Z,65.71
2019-05-05T16:04:41.978Z,63.55
2019-05-05T16:07:10.455Z,65.06
2019-05-05T16:09:38.854Z,63.22
2019-05-05T16:12:07.295Z,60.92
2019-05-05T16:14:37.336Z,61.45
2019-05-05T16:17:25.514Z,62.19
2019-05-05T16:19:58.573Z,63.31
2019-05-05T16:22:28.640Z,61.63
2019-05-05T16:25:14.081Z,60.55
2019-05-05T16:27:44.562Z,60.69
2019-05-05T16:30:15.311Z,62.63
2019-05-05T16:32:43.711Z,62.67
2019-05-05T16:35:14.481Z,60.17
2019-05-05T16:37:43.185Z,58.70
2019-05-05T16:40:14.284Z,54.69
2019-05-05T16:42:43.721Z,51.86
2019-05-05T16:45:13.626Z,51.93
2019-05-05T16:47:44.310Z,51.18
2019-05-05T16:50:13.620Z,52.67
2019-05-05T16:52:54.485Z,50.84
2019-05-05T16:55:24.451Z,51.25
2019-05-05T16:57:55.021Z,53.37
2019-05-05T17:00:25.643Z,50.91
2019-05-05T17:02:53.672Z,51.52
2019-05-05T17:05:24.043Z,51.63
2019-05-05T17:07:55.425Z,52.22
2019-05-05T17:10:24.430Z,52.50
2019-05-05T17:12:53.287Z,51.55
2019-05-05T17:15:35.592Z,50.90
2019-05-05T17:18:08.106Z,52.21
2019-05-05T17:20:54.393Z,51.18
2019-05-05T17:23:23.877Z,52.16
2019-05-05T17:25:53.748Z,51.71
2019-05-05T17:28:23.850Z,51.63
2019-05-05T17:30:54.209Z,51.97
2019-05-05T17:33:24.172Z,52.82
2019-05-05T17:35:53.934Z,52.60
2019-05-05T17:38:24.418Z,52.86
2019-05-05T17:40:54.526Z,53.68
2019-05-05T17:43:34.062Z,55.24
2019-05-05T17:46:07.480Z,56.21
2019-05-05T17:48:54.061Z,57.10
2019-05-05T17:51:36.110Z,57.79
2019-05-05T17:54:06.247Z,58.51
2019-05-05T17:56:34.671Z,57.79
2019-05-05T17:59:03.537Z,57.05
2019-05-05T18:01:33.605Z,57.78
2019-05-05T18:04:03.994Z,57.09
2019-05-05T18:06:44.071Z,56.65
2019-05-05T18:09:14.180Z,56.72
2019-05-05T18:11:46.935Z,57.57
2019-05-05T18:14:19.723Z,58.94
2019-05-05T18:16:48.150Z,60.20
2019-05-05T18:19:16.552Z,61.25
2019-05-05T18:21:44.951Z,62.16
2019-05-05T18:24:13.799Z,62.88
2019-05-05T18:26:43.586Z,63.84
2019-05-05T18:29:12.045Z,64.37
2019-05-05T18:31:40.447Z,65.01
2019-05-05T18:34:08.890Z,65.87
2019-05-05T18:36:37.293Z,66.45
2019-05-05T18:39:07.826Z,67.46
2019-05-05T18:41:40.562Z,68.34
2019-05-05T18:44:13.483Z,69.45
2019-05-05T18:46:43.555Z,70.13
2019-05-05T18:49:13.909Z,71.11
2019-05-05T18:51:43.953Z,71.94
2019-05-05T18:54:12.499Z,73.04
2019-05-05T18:56:40.903Z,74.18
2019-05-05T18:59:09.323Z,74.91
2019-05-05T19:01:39.357Z,75.79
2019-05-05T19:04:09.424Z,77.14
2019-05-05T19:06:48.225Z,78.88
2019-05-05T19:09:18.351Z,80.50
2019-05-05T19:11:46.746Z,81.69
2019-05-05T19:14:15.178Z,82.46
2019-05-05T19:16:43.705Z,83.17
2019-05-05T19:19:14.225Z,84.47
2019-05-05T19:21:54.706Z,84.47
2019-05-05T19:24:23.180Z,86.69
2019-05-05T19:26:51.579Z,86.69
2019-05-05T19:29:20.006Z,87.66
2019-05-05T19:31:48.407Z,87.66
2019-05-05T19:34:16.841Z,88.38
2019-05-05T19:36:45.241Z,88.83
2019-05-05T19:39:13.861Z,89.45
2019-05-05T19:41:46.586Z,89.54
2019-05-05T19:44:14.554Z,89.38
2019-05-05T19:46:55.878Z,89.38
2019-05-05T19:49:24.309Z,90.45
2019-05-05T19:51:54.136Z,90.19
2019-05-05T19:54:22.721Z,90.19
2019-05-05T19:56:51.126Z,90.76
2019-05-05T19:59:19.551Z,91.42
2019-05-05T20:01:47.957Z,92.64
2019-05-05T20:04:16.395Z,92.64
2019-05-05T20:06:44.800Z,92.87
2019-05-05T20:09:14.213Z,92.50
2019-05-05T20:11:43.740Z,90.07
2019-05-05T20:14:14.812Z,90.07
2019-05-05T20:17:00.737Z,88.40
2019-05-05T20:19:31.180Z,88.40
2019-05-05T20:21:59.584Z,87.96
2019-05-05T20:24:28.051Z,88.25
2019-05-05T20:26:56.577Z,88.25
2019-05-05T20:29:24.975Z,88.95
2019-05-05T20:31:54.961Z,89.96
2019-05-05T20:34:41.347Z,89.96
2019-05-05T20:37:11.413Z,90.49
2019-05-05T20:39:39.878Z,91.21
2019-05-05T20:42:08.619Z,92.09
2019-05-05T20:44:37.756Z,92.76
2019-05-05T20:47:06.256Z,92.76
2019-05-05T20:49:34.737Z,93.99
2019-05-05T20:52:03.803Z,93.99
2019-05-05T20:54:32.316Z,95.02
2019-05-05T20:57:00.749Z,96.52
2019-05-05T20:59:31.043Z,96.52
2019-05-05T21:01:59.376Z,97.88
2019-05-05T21:04:27.776Z,97.88
2019-05-05T21:06:56.283Z,98.65
2019-05-05T21:09:24.936Z,99.80
2019-05-05T21:11:54.755Z,100.00
2019-05-05T21:14:32.001Z,100.00
2019-05-05T21:16:54.778Z,100.00
2019-05-05T21:19:24.761Z,100.00
2019-05-05T21:21:54.950Z,100.00
2019-05-05T21:24:23.945Z,100.00
2019-05-05T21:26:56.790Z,100.00
2019-05-05T21:29:38.209Z,100.00
2019-05-05T21:31:55.520Z,100.00
2019-05-05T21:34:24.778Z,100.00
2019-05-05T21:36:54.087Z,100.00
2019-05-05T21:39:24.667Z,100.00
2019-05-05T21:41:52.788Z,100.00
2019-05-05T21:44:21.193Z,100.00
2019-05-05T21:46:49.628Z,100.00
2019-05-05T21:49:18.033Z,100.00
2019-05-05T21:51:48.103Z,100.00
2019-05-05T21:54:29.928Z,100.00
2019-05-05T21:57:05.699Z,100.00
2019-05-05T21:59:34.099Z,100.00
2019-05-05T22:02:03.973Z,100.00
2019-05-05T22:04:33.781Z,100.00
2019-05-05T22:07:03.733Z,100.00
2019-05-05T22:09:32.339Z,100.00
2019-05-05T22:12:00.745Z,100.00
2019-05-05T22:14:29.181Z,100.00
2019-05-05T22:16:57.583Z,100.00
2019-05-05T22:19:27.654Z,100.00
2019-05-05T22:21:57.704Z,100.00
2019-05-05T22:24:26.137Z,100.00
2019-05-05T22:26:54.540Z,100.00
2019-05-05T22:29:24.892Z,100.00
2019-05-05T22:31:53.095Z,100.00
2019-05-05T22:34:21.521Z,100.00
2019-05-05T22:36:49.924Z,100.00
2019-05-05T22:39:18.364Z,100.00
2019-05-05T22:41:46.767Z,100.00
2019-05-05T22:44:15.201Z,100.00
2019-05-05T22:46:43.745Z,100.00
2019-05-05T22:49:12.175Z,100.00
2019-05-05T22:51:40.585Z,100.00
2019-05-05T22:54:09.483Z,100.00
2019-05-05T22:56:40.801Z,100.00
2019-05-05T22:59:09.308Z,100.00
2019-05-05T23:01:37.783Z,100.00
2019-05-05T23:04:16.612Z,100.00
2019-05-05T23:06:55.533Z,100.00
2019-05-05T23:09:23.975Z,100.00
2019-05-05T23:11:54.470Z,100.00
2019-05-05T23:14:28.592Z,100.00
2019-05-05T23:17:12.360Z,100.00
2019-05-05T23:19:44.358Z,100.00
2019-05-05T23:22:14.662Z,100.00
2019-05-05T23:24:45.246Z,100.00
2019-05-05T23:27:15.439Z,100.00
2019-05-05T23:29:44.604Z,100.00
2019-05-05T23:32:15.363Z,100.00
2019-05-05T23:34:44.512Z,100.00
2019-05-05T23:37:13.732Z,100.00
2019-05-05T23:39:42.403Z,100.00
2019-05-05T23:42:10.809Z,100.00
2019-05-05T23:44:39.261Z,100.00
2019-05-05T23:47:07.663Z,100.00
2019-05-05T23:49:36.076Z,100.00
2019-05-05T23:52:04.520Z,100.00
2019-05-05T23:54:34.084Z,100.00
2019-05-05T23:57:04.673Z,100.00
2019-05-05T23:59:32.840Z,100.00
